createdAt,value
2017-11-08T00:00:17.801Z,155.75
2017-11-08T00:02:45.250Z,165.52
2017-11-08T00:05:15.568Z,160.70
2017-11-08T00:07:43.052Z,165.27
2017-11-08T00:10:10.493Z,157.68
2017-11-08T00:12:37.941Z,168.62
2017-11-08T00:15:05.400Z,177.50
2017-11-08T00:17:32.832Z,193.15
2017-11-08T00:20:00.296Z,154.77
2017-11-08T00:22:27.749Z,176.27
2017-11-08T00:25:01.574Z,178.05
2017-11-08T00:27:29.003Z,174.68
2017-11-08T00:29:56.457Z,183.50
2017-11-08T00:32:23.937Z,189.07
2017-11-08T00:34:51.373Z,191.73
2017-11-08T00:37:18.820Z,178.65
2017-11-08T00:39:46.289Z,179.45
2017-11-08T00:42:13.733Z,180.10
2017-11-08T00:44:41.164Z,180.93
2017-11-08T00:47:08.623Z,174.90
2017-11-08T00:49:36.057Z,171.68
2017-11-08T00:52:03.497Z,161.25
2017-11-08T00:54:30.961Z,169.62
2017-11-08T00:56:58.397Z,177.07
2017-11-08T00:59:25.864Z,186.57
2017-11-08T01:01:53.325Z,187.37
2017-11-08T01:04:20.768Z,196.20
2017-11-08T01:06:48.209Z,185.98
2017-11-08T01:09:15.664Z,200.55
2017-11-08T01:11:43.110Z,194.82
2017-11-08T01:14:10.568Z,210.32
2017-11-08T01:16:39.095Z,197.07
2017-11-08T01:19:06.554Z,191.07
2017-11-08T01:21:34.141Z,190.25
2017-11-08T01:24:01.621Z,204.52
2017-11-08T01:26:29.081Z,218.93
2017-11-08T01:28:56.510Z,210.75
2017-11-08T01:31:23.984Z,220.48
2017-11-08T01:33:51.436Z,221.90
2017-11-08T01:36:21.727Z,197.85
2017-11-08T01:38:49.282Z,187.32
2017-11-08T01:41:22.267Z,194.00
2017-11-08T01:43:49.721Z,211.75
2017-11-08T01:46:17.154Z,191.18
2017-11-08T01:48:44.604Z,193.82
2017-11-08T01:51:14.001Z,180.50
2017-11-08T01:53:41.440Z,191.32
2017-11-08T01:56:08.892Z,184.05
2017-11-08T01:58:36.337Z,181.40
2017-11-08T02:01:03.768Z,178.52
2017-11-08T02:03:31.223Z,202.50
2017-11-08T02:05:58.655Z,198.35
2017-11-08T02:08:26.093Z,210.90
2017-11-08T02:10:53.543Z,201.90
2017-11-08T02:13:21.012Z,205.15
2017-11-08T02:15:51.426Z,220.63
2017-11-08T02:18:21.751Z,204.85
2017-11-08T02:20:49.224Z,214.43
2017-11-08T02:23:16.656Z,190.57
2017-11-08T02:25:44.113Z,204.23
2017-11-08T02:28:11.548Z,192.32
2017-11-08T02:30:38.986Z,225.68
2017-11-08T02:33:06.445Z,209.52
2017-11-08T02:35:33.888Z,189.10
2017-11-08T02:38:01.362Z,202.65
2017-11-08T02:40:28.880Z,192.07
2017-11-08T02:42:56.330Z,185.20
2017-11-08T02:45:29.465Z,187.40
2017-11-08T02:47:56.909Z,176.37
2017-11-08T02:50:24.350Z,196.65
2017-11-08T02:52:51.804Z,156.80
2017-11-08T02:55:19.249Z,179.20
2017-11-08T02:57:46.686Z,176.65
2017-11-08T03:00:14.136Z,175.18
2017-11-08T03:02:47.177Z,168.50
2017-11-08T03:05:17.593Z,172.48
2017-11-08T03:07:45.041Z,171.57
2017-11-08T03:10:12.493Z,168.27
2017-11-08T03:12:39.944Z,153.23
2017-11-08T03:15:07.384Z,167.57
2017-11-08T03:17:34.829Z,205.00
2017-11-08T03:20:02.269Z,180.87
2017-11-08T03:22:29.712Z,181.20
2017-11-08T03:24:57.145Z,174.35
2017-11-08T03:27:24.608Z,161.90
2017-11-08T03:29:52.048Z,155.52
2017-11-08T03:32:19.485Z,179.98
2017-11-08T03:34:46.932Z,166.45
2017-11-08T03:37:14.364Z,155.55
2017-11-08T03:39:41.817Z,149.70
2017-11-08T03:42:09.253Z,160.65
2017-11-08T03:44:36.693Z,156.48
2017-11-08T03:47:04.145Z,146.40
2017-11-08T03:49:31.616Z,162.95
2017-11-08T03:51:59.062Z,148.70
2017-11-08T03:54:26.517Z,174.07
2017-11-08T03:56:53.948Z,155.82
2017-11-08T03:59:21.389Z,146.43
2017-11-08T04:01:48.856Z,130.10
2017-11-08T04:04:16.298Z,118.55
2017-11-08T04:06:43.734Z,152.32
2017-11-08T04:09:11.188Z,153.95
2017-11-08T04:11:38.629Z,123.60
2017-11-08T04:14:06.065Z,109.80
2017-11-08T04:16:33.515Z,120.45
2017-11-08T04:19:00.954Z,134.40
2017-11-08T04:21:28.409Z,117.37
2017-11-08T04:23:55.849Z,118.72
2017-11-08T04:26:23.299Z,121.18
2017-11-08T04:28:50.750Z,110.63
2017-11-08T04:31:18.184Z,99.37
2017-11-08T04:33:45.645Z,108.47
2017-11-08T04:36:13.081Z,97.72
2017-11-08T04:38:40.521Z,106.10
2017-11-08T04:41:07.968Z,92.60
2017-11-08T04:43:35.405Z,91.65
2017-11-08T04:46:02.857Z,88.43
2017-11-08T04:48:30.295Z,101.72
2017-11-08T04:50:57.733Z,93.57
2017-11-08T04:53:25.190Z,85.12
2017-11-08T04:55:52.622Z,84.37
2017-11-08T04:58:20.058Z,79.28
2017-11-08T05:00:47.621Z,97.57
2017-11-08T05:03:15.058Z,95.55
2017-11-08T05:05:42.494Z,90.93
2017-11-08T05:08:09.940Z,121.07
2017-11-08T05:10:37.385Z,117.97
2017-11-08T05:13:04.837Z,117.65
2017-11-08T05:15:32.282Z,137.55
2017-11-08T05:17:59.721Z,125.20
2017-11-08T05:20:27.186Z,142.82
2017-11-08T05:22:54.621Z,146.57
2017-11-08T05:25:22.063Z,132.40
2017-11-08T05:27:49.517Z,137.00
2017-11-08T05:30:16.952Z,127.87
2017-11-08T05:32:44.413Z,123.68
2017-11-08T05:35:11.856Z,120.70
2017-11-08T05:37:39.363Z,138.52
2017-11-08T05:40:06.817Z,129.43
2017-11-08T05:42:34.261Z,128.52
2017-11-08T05:45:01.693Z,135.73
2017-11-08T05:47:29.153Z,104.60
2017-11-08T05:49:56.593Z,101.90
2017-11-08T05:52:24.046Z,109.97
2017-11-08T05:54:51.488Z,83.47
2017-11-08T05:57:18.917Z,70.95
2017-11-08T05:59:46.370Z,57.67
2017-11-08T06:02:13.805Z,64.03
2017-11-08T06:04:41.262Z,59.17
2017-11-08T06:07:08.695Z,53.92
2017-11-08T06:09:36.138Z,43.65
2017-11-08T06:12:03.585Z,47.92
2017-11-08T06:14:31.021Z,50.00
2017-11-08T06:16:58.513Z,49.72
2017-11-08T06:19:25.953Z,43.22
2017-11-08T06:21:53.497Z,38.47
2017-11-08T06:24:20.955Z,40.38
2017-11-08T06:26:48.393Z,40.35
2017-11-08T06:29:15.825Z,34.40
2017-11-08T06:31:43.268Z,35.28
2017-11-08T06:34:11.509Z,38.15
2017-11-08T06:36:40.646Z,35.75
2017-11-08T06:39:08.564Z,34.00
2017-11-08T06:41:35.995Z,34.67
2017-11-08T06:44:03.442Z,32.05
2017-11-08T06:46:33.172Z,29.95
2017-11-08T06:49:04.030Z,41.10
2017-11-08T06:51:31.461Z,33.88
2017-11-08T06:53:58.893Z,33.53
2017-11-08T06:56:26.346Z,31.92
2017-11-08T06:58:53.776Z,26.58
2017-11-08T07:01:21.229Z,28.80
2017-11-08T07:03:48.661Z,28.05
2017-11-08T07:06:16.109Z,27.70
2017-11-08T07:08:43.558Z,31.00
2017-11-08T07:11:11.005Z,25.15
2017-11-08T07:13:38.437Z,24.15
2017-11-08T07:16:06.836Z,27.20
2017-11-08T07:18:34.273Z,23.10
2017-11-08T07:21:01.713Z,26.37
2017-11-08T07:23:29.159Z,24.60
2017-11-08T07:25:56.604Z,21.60
2017-11-08T07:28:24.081Z,26.95
2017-11-08T07:30:51.522Z,22.73
2017-11-08T07:33:18.957Z,23.70
2017-11-08T07:35:46.400Z,25.55
2017-11-08T07:38:13.837Z,25.95
2017-11-08T07:40:41.280Z,26.35
2017-11-08T07:43:08.732Z,23.60
2017-11-08T07:45:36.171Z,27.10
2017-11-08T07:48:03.610Z,23.50
2017-11-08T07:50:31.056Z,22.70
2017-11-08T07:52:58.494Z,24.75
2017-11-08T07:55:32.264Z,21.45
2017-11-08T07:57:59.704Z,23.33
2017-11-08T08:00:27.153Z,20.75
2017-11-08T08:02:54.580Z,20.40
2017-11-08T08:05:22.029Z,18.73
2017-11-08T08:07:49.457Z,27.10
2017-11-08T08:10:16.890Z,18.02
2017-11-08T08:12:44.340Z,16.27
2017-11-08T08:15:11.772Z,21.10
2017-11-08T08:17:39.208Z,20.00
2017-11-08T08:20:07.517Z,21.77
2017-11-08T08:22:34.944Z,20.20
2017-11-08T08:25:02.377Z,19.30
2017-11-08T08:27:29.824Z,20.50
2017-11-08T08:29:57.253Z,24.20
2017-11-08T08:32:24.688Z,22.70
2017-11-08T08:34:52.136Z,25.05
2017-11-08T08:37:19.568Z,25.20
2017-11-08T08:39:46.993Z,24.12
2017-11-08T08:42:14.436Z,25.15
2017-11-08T08:44:41.878Z,23.85
2017-11-08T08:47:09.327Z,25.10
2017-11-08T08:49:36.766Z,26.25
2017-11-08T08:52:04.189Z,29.75
2017-11-08T08:54:31.649Z,28.30
2017-11-08T08:56:59.086Z,27.62
2017-11-08T08:59:26.509Z,31.10
2017-11-08T09:01:55.762Z,27.33
2017-11-08T09:04:23.188Z,33.10
2017-11-08T09:06:50.640Z,32.45
2017-11-08T09:09:18.099Z,32.22
2017-11-08T09:11:45.532Z,38.70
2017-11-08T09:14:12.978Z,29.90
2017-11-08T09:16:40.413Z,33.70
2017-11-08T09:19:07.855Z,28.38
2017-11-08T09:21:37.115Z,32.03
2017-11-08T09:24:06.347Z,34.33
2017-11-08T09:26:33.822Z,31.60
2017-11-08T09:29:04.104Z,33.85
2017-11-08T09:31:37.417Z,36.60
2017-11-08T09:34:04.877Z,31.55
2017-11-08T09:36:35.245Z,31.67
2017-11-08T09:39:02.705Z,31.60
2017-11-08T09:41:32.135Z,33.60
2017-11-08T09:43:59.572Z,35.20
2017-11-08T09:46:27.020Z,31.58
2017-11-08T09:48:54.456Z,37.58
2017-11-08T09:51:22.016Z,44.28
2017-11-08T09:53:49.449Z,33.53
2017-11-08T09:56:18.679Z,33.75
2017-11-08T09:58:46.113Z,31.37
2017-11-08T10:01:16.224Z,28.15
2017-11-08T10:03:43.644Z,29.10
2017-11-08T10:06:11.090Z,34.67
2017-11-08T10:08:41.316Z,33.20
2017-11-08T10:11:23.345Z,32.47
2017-11-08T10:13:50.785Z,31.15
2017-11-08T10:16:19.033Z,31.50
2017-11-08T10:18:46.481Z,32.10
2017-11-08T10:21:13.905Z,27.53
2017-11-08T10:23:41.351Z,32.90
2017-11-08T10:26:09.733Z,29.42
2017-11-08T10:28:37.195Z,31.03
2017-11-08T10:31:04.649Z,27.77
2017-11-08T10:33:32.085Z,29.45
2017-11-08T10:35:59.526Z,31.30
2017-11-08T10:38:26.978Z,26.83
2017-11-08T10:40:54.409Z,24.70
2017-11-08T10:43:21.812Z,25.80
2017-11-08T10:45:49.260Z,22.95
2017-11-08T10:48:16.696Z,19.65
2017-11-08T10:50:44.151Z,22.00
2017-11-08T10:53:11.601Z,20.20
2017-11-08T10:55:39.022Z,21.00
2017-11-08T10:58:06.469Z,24.30
2017-11-08T11:00:36.877Z,21.83
2017-11-08T11:03:07.217Z,19.33
2017-11-08T11:05:34.661Z,22.52
2017-11-08T11:08:02.095Z,24.90
2017-11-08T11:10:29.541Z,20.92
2017-11-08T11:13:04.348Z,25.23
2017-11-08T11:15:31.803Z,21.67
2017-11-08T11:17:59.241Z,22.40
2017-11-08T11:20:27.459Z,22.70
2017-11-08T11:22:54.949Z,19.67
2017-11-08T11:25:22.384Z,20.58
2017-11-08T11:27:49.833Z,19.27
2017-11-08T11:30:22.873Z,22.37
2017-11-08T11:32:50.313Z,20.70
2017-11-08T11:35:17.743Z,21.20
2017-11-08T11:37:48.025Z,22.58
2017-11-08T11:40:15.479Z,34.97
2017-11-08T11:42:42.941Z,37.58
2017-11-08T11:45:10.365Z,29.77
2017-11-08T11:47:37.810Z,28.02
2017-11-08T11:50:05.245Z,20.60
2017-11-08T11:52:32.682Z,20.10
2017-11-08T11:55:00.137Z,22.95
2017-11-08T11:57:27.570Z,17.98
2017-11-08T11:59:54.994Z,19.83
2017-11-08T12:02:22.442Z,23.15
2017-11-08T12:04:49.886Z,19.85
2017-11-08T12:07:17.345Z,22.73
2017-11-08T12:09:44.782Z,19.12
2017-11-08T12:12:12.216Z,15.27
2017-11-08T12:14:39.667Z,20.05
2017-11-08T12:17:07.090Z,18.67
2017-11-08T12:19:38.357Z,16.52
2017-11-08T12:22:05.808Z,17.42
2017-11-08T12:24:33.241Z,16.30
2017-11-08T12:27:05.582Z,15.80
2017-11-08T12:29:33.006Z,15.45
2017-11-08T12:32:00.442Z,14.82
2017-11-08T12:34:27.906Z,16.65
2017-11-08T12:36:55.338Z,16.58
2017-11-08T12:39:22.765Z,17.27
2017-11-08T12:41:50.211Z,16.30
2017-11-08T12:44:23.210Z,15.13
2017-11-08T12:46:50.722Z,17.42
2017-11-08T12:49:18.149Z,18.17
2017-11-08T12:51:45.597Z,22.10
2017-11-08T12:54:13.055Z,16.85
2017-11-08T12:56:40.494Z,17.98
2017-11-08T12:59:07.929Z,16.10
2017-11-08T13:01:35.370Z,17.90
2017-11-08T13:04:02.788Z,15.57
2017-11-08T13:06:30.223Z,15.70
2017-11-08T13:08:57.661Z,18.95
2017-11-08T13:11:30.494Z,25.17
2017-11-08T13:13:57.958Z,17.55
2017-11-08T13:16:25.388Z,21.17
2017-11-08T13:18:52.817Z,19.48
2017-11-08T13:21:20.262Z,16.83
2017-11-08T13:23:47.681Z,20.53
2017-11-08T13:26:15.118Z,19.02
2017-11-08T13:28:42.570Z,17.90
2017-11-08T13:31:10.006Z,19.90
2017-11-08T13:33:37.454Z,20.75
2017-11-08T13:36:04.885Z,19.27
2017-11-08T13:38:32.313Z,16.00
2017-11-08T13:40:59.915Z,23.92
2017-11-08T13:43:27.325Z,21.27
2017-11-08T13:45:54.822Z,21.30
2017-11-08T13:48:22.254Z,15.70
2017-11-08T13:50:49.686Z,19.37
2017-11-08T13:53:17.139Z,14.80
2017-11-08T13:55:44.560Z,21.10
2017-11-08T13:58:11.990Z,21.12
2017-11-08T14:00:39.449Z,18.90
2017-11-08T14:03:06.890Z,15.68
2017-11-08T14:05:34.310Z,18.87
2017-11-08T14:08:01.755Z,17.87
2017-11-08T14:10:29.206Z,17.98
2017-11-08T14:12:56.638Z,16.95
2017-11-08T14:15:24.066Z,33.97
2017-11-08T14:17:51.528Z,26.17
2017-11-08T14:20:18.965Z,22.20
2017-11-08T14:22:46.398Z,16.83
2017-11-08T14:25:13.841Z,20.55
2017-11-08T14:27:41.273Z,24.85
2017-11-08T14:30:08.732Z,27.58
2017-11-08T14:32:39.980Z,16.50
2017-11-08T14:35:07.429Z,15.75
2017-11-08T14:37:34.877Z,14.18
2017-11-08T14:40:02.302Z,14.97
2017-11-08T14:42:35.370Z,16.17
2017-11-08T14:45:02.801Z,23.70
2017-11-08T14:47:30.293Z,18.63
2017-11-08T14:49:57.759Z,17.15
2017-11-08T14:52:25.203Z,19.50
2017-11-08T14:54:52.637Z,20.52
2017-11-08T14:57:20.140Z,20.85
2017-11-08T14:59:47.601Z,17.05
2017-11-08T15:02:15.051Z,22.27
2017-11-08T15:04:43.281Z,21.65
2017-11-08T15:07:10.716Z,17.87
2017-11-08T15:09:38.151Z,22.42
2017-11-08T15:12:05.598Z,23.58
2017-11-08T15:14:38.670Z,28.67
2017-11-08T15:17:06.184Z,21.80
2017-11-08T15:19:33.700Z,25.08
2017-11-08T15:22:01.134Z,21.17
2017-11-08T15:24:28.569Z,24.45
2017-11-08T15:26:56.002Z,23.53
2017-11-08T15:29:26.154Z,27.40
2017-11-08T15:31:53.611Z,25.65
2017-11-08T15:34:21.042Z,24.17
2017-11-08T15:36:48.521Z,25.60
2017-11-08T15:39:15.978Z,26.70
2017-11-08T15:41:57.861Z,25.27
2017-11-08T15:44:25.304Z,18.62
2017-11-08T15:46:54.533Z,20.63
2017-11-08T15:49:21.972Z,22.55
2017-11-08T15:51:49.425Z,19.55
2017-11-08T15:54:16.857Z,24.30
2017-11-08T15:56:44.322Z,22.80
2017-11-08T15:59:11.754Z,24.98
2017-11-08T16:01:42.029Z,22.17
2017-11-08T16:04:12.254Z,25.30
2017-11-08T16:06:39.690Z,27.08
2017-11-08T16:09:09.945Z,26.60
2017-11-08T16:11:37.381Z,28.65
2017-11-08T16:14:04.805Z,25.75
2017-11-08T16:16:33.037Z,34.00
2017-11-08T16:19:03.346Z,24.83
2017-11-08T16:21:31.664Z,28.15
2017-11-08T16:23:59.165Z,25.90
2017-11-08T16:26:26.601Z,30.33
2017-11-08T16:28:54.059Z,31.87
2017-11-08T16:31:21.500Z,25.80
2017-11-08T16:33:48.932Z,25.77
2017-11-08T16:36:16.385Z,28.05
2017-11-08T16:38:43.834Z,26.80
2017-11-08T16:41:11.274Z,25.25
2017-11-08T16:43:38.717Z,31.85
2017-11-08T16:46:06.147Z,28.23
2017-11-08T16:48:33.580Z,26.33
2017-11-08T16:51:01.022Z,29.70
2017-11-08T16:53:28.469Z,33.30
2017-11-08T16:55:55.922Z,28.80
2017-11-08T16:58:23.354Z,27.15
2017-11-08T17:00:50.782Z,39.22
2017-11-08T17:03:18.229Z,35.35
2017-11-08T17:05:45.658Z,32.72
2017-11-08T17:08:13.093Z,38.03
2017-11-08T17:10:40.537Z,34.83
2017-11-08T17:13:07.970Z,32.20
2017-11-08T17:15:35.410Z,31.08
2017-11-08T17:18:02.862Z,30.02
2017-11-08T17:20:30.294Z,33.88
2017-11-08T17:22:57.730Z,31.30
2017-11-08T17:25:25.177Z,34.15
2017-11-08T17:27:52.618Z,36.45
2017-11-08T17:30:20.041Z,36.97
2017-11-08T17:32:47.487Z,34.85
2017-11-08T17:35:14.939Z,36.88
2017-11-08T17:37:42.386Z,36.30
2017-11-08T17:40:09.815Z,34.10
2017-11-08T17:42:37.242Z,33.05
2017-11-08T17:45:04.688Z,36.15
2017-11-08T17:47:32.148Z,30.88
2017-11-08T17:49:59.586Z,32.55
2017-11-08T17:52:27.039Z,30.08
2017-11-08T17:54:54.474Z,36.55
2017-11-08T17:57:22.005Z,34.08
2017-11-08T17:59:49.466Z,31.77
2017-11-08T18:02:16.898Z,28.62
2017-11-08T18:04:44.353Z,30.90
2017-11-08T18:07:11.786Z,25.58
2017-11-08T18:09:39.219Z,28.83
2017-11-08T18:12:06.661Z,30.73
2017-11-08T18:14:34.097Z,33.80
2017-11-08T18:17:01.526Z,26.12
2017-11-08T18:19:28.975Z,26.48
2017-11-08T18:21:56.411Z,28.40
2017-11-08T18:24:23.876Z,44.00
2017-11-08T18:26:51.306Z,29.77
2017-11-08T18:29:18.752Z,29.85
2017-11-08T18:31:46.199Z,31.37
2017-11-08T18:34:13.640Z,30.30
2017-11-08T18:36:41.098Z,34.27
2017-11-08T18:39:08.554Z,29.33
2017-11-08T18:41:35.986Z,27.95
2017-11-08T18:44:03.443Z,30.83
2017-11-08T18:46:30.875Z,32.63
2017-11-08T18:48:58.310Z,32.00
2017-11-08T18:51:25.846Z,29.42
2017-11-08T18:53:53.535Z,33.70
2017-11-08T18:56:21.668Z,34.85
2017-11-08T18:58:49.778Z,28.00
2017-11-08T19:01:17.839Z,33.85
2017-11-08T19:03:46.083Z,33.38
2017-11-08T19:06:14.208Z,32.95
2017-11-08T19:08:42.591Z,31.23
2017-11-08T19:11:10.963Z,33.63
2017-11-08T19:13:39.477Z,33.95
2017-11-08T19:16:07.830Z,42.78
2017-11-08T19:18:36.230Z,32.50
2017-11-08T19:21:04.590Z,33.80
2017-11-08T19:23:32.989Z,31.00
2017-11-08T19:26:01.479Z,32.90
2017-11-08T19:28:29.894Z,32.08
2017-11-08T19:30:58.252Z,31.48
2017-11-08T19:33:26.674Z,32.20
2017-11-08T19:35:55.085Z,30.88
2017-11-08T19:38:23.593Z,32.28
2017-11-08T19:40:52.187Z,29.42
2017-11-08T19:43:20.956Z,33.35
2017-11-08T19:45:49.422Z,34.05
2017-11-08T19:48:17.920Z,30.58
2017-11-08T19:50:52.745Z,35.03
2017-11-08T19:53:25.239Z,40.40
2017-11-08T19:55:53.625Z,37.75
2017-11-08T19:58:22.113Z,31.95
2017-11-08T20:00:50.631Z,35.55
2017-11-08T20:03:19.106Z,37.08
2017-11-08T20:05:47.503Z,40.63
2017-11-08T20:08:16.091Z,35.08
2017-11-08T20:10:44.551Z,38.72
2017-11-08T20:13:13.254Z,30.48
2017-11-08T20:15:45.795Z,30.98
2017-11-08T20:18:14.458Z,33.28
2017-11-08T20:20:47.725Z,35.08
2017-11-08T20:23:16.989Z,32.67
2017-11-08T20:28:26.226Z,39.20
2017-11-08T20:30:54.698Z,37.65
2017-11-08T20:33:23.433Z,38.05
2017-11-08T20:35:52.031Z,33.92
2017-11-08T20:38:20.406Z,35.30
2017-11-08T20:40:49.063Z,35.58
2017-11-08T20:43:17.926Z,39.03
2017-11-08T20:45:46.325Z,37.67
2017-11-08T20:48:15.093Z,52.40
2017-11-08T20:50:43.802Z,42.92
2017-11-08T20:53:12.369Z,46.47
2017-11-08T20:55:41.230Z,39.15
2017-11-08T20:58:09.939Z,40.88
2017-11-08T21:00:38.475Z,32.92
2017-11-08T21:03:08.178Z,35.08
2017-11-08T21:05:36.705Z,35.47
2017-11-08T21:08:05.961Z,41.05
2017-11-08T21:10:34.477Z,44.78
2017-11-08T21:13:02.926Z,44.05
2017-11-08T21:15:33.056Z,37.45
2017-11-08T21:18:02.379Z,51.30
2017-11-08T21:20:31.792Z,39.05
2017-11-08T21:23:00.134Z,37.30
2017-11-08T21:25:28.581Z,43.50
2017-11-08T21:27:57.108Z,35.15
2017-11-08T21:30:25.524Z,39.20
2017-11-08T21:32:54.002Z,45.28
2017-11-08T21:35:22.906Z,42.00
2017-11-08T21:37:51.267Z,38.10
2017-11-08T21:40:19.912Z,42.03
2017-11-08T21:42:48.047Z,32.92
2017-11-08T21:45:15.866Z,38.28
2017-11-08T21:47:43.612Z,39.95
2017-11-08T21:50:11.328Z,37.38
2017-11-08T21:52:39.062Z,34.20
2017-11-08T21:55:10.585Z,44.65
2017-11-08T21:57:39.009Z,35.67
2017-11-08T22:00:06.726Z,41.72
2017-11-08T22:02:34.166Z,36.22
2017-11-08T22:05:01.626Z,36.13
2017-11-08T22:07:29.066Z,41.42
2017-11-08T22:09:56.552Z,40.03
2017-11-08T22:12:23.998Z,38.72
2017-11-08T22:14:51.436Z,37.13
2017-11-08T22:17:18.895Z,33.17
2017-11-08T22:19:46.370Z,36.90
2017-11-08T22:22:13.814Z,36.88
2017-11-08T22:24:41.243Z,41.40
2017-11-08T22:27:08.686Z,38.00
2017-11-08T22:29:36.133Z,39.10
2017-11-08T22:32:03.570Z,42.97
2017-11-08T22:34:33.846Z,40.33
2017-11-08T22:37:01.281Z,39.05
2017-11-08T22:39:28.725Z,36.03
2017-11-08T22:41:56.171Z,37.05
2017-11-08T22:44:23.707Z,37.30
2017-11-08T22:46:51.167Z,35.65
2017-11-08T22:49:18.609Z,36.05
2017-11-08T22:51:46.071Z,36.90
2017-11-08T22:54:13.521Z,34.15
2017-11-08T22:56:40.957Z,31.75
2017-11-08T22:59:08.409Z,30.08
2017-11-08T23:01:35.848Z,31.90
2017-11-08T23:04:03.307Z,29.42
2017-11-08T23:06:30.749Z,33.72
2017-11-08T23:08:58.190Z,30.65
2017-11-08T23:11:25.637Z,33.35
2017-11-08T23:13:53.084Z,31.98
2017-11-08T23:16:22.307Z,29.85
2017-11-08T23:18:49.754Z,31.45
2017-11-08T23:21:17.185Z,37.55
2017-11-08T23:23:44.622Z,34.78
2017-11-08T23:26:12.071Z,30.95
2017-11-08T23:28:39.513Z,32.97
2017-11-08T23:31:06.950Z,30.08
2017-11-08T23:33:34.403Z,29.25
2017-11-08T23:36:01.856Z,29.23
2017-11-08T23:38:29.294Z,35.83
2017-11-08T23:40:56.721Z,26.05
2017-11-08T23:43:24.146Z,30.33
2017-11-08T23:45:51.594Z,31.52
2017-11-08T23:48:19.056Z,28.62
2017-11-08T23:50:53.010Z,31.87
2017-11-08T23:53:20.442Z,29.05
2017-11-08T23:55:47.895Z,31.35
2017-11-08T23:58:15.337Z,29.65
